createdAt,value
2018-05-31T00:00:01.980Z,100836.15
2018-05-31T00:02:30.353Z,100836.15
2018-05-31T00:04:58.896Z,100836.13
2018-05-31T00:07:27.244Z,100829.19
2018-05-31T00:09:55.576Z,100842.45
2018-05-31T00:12:23.937Z,100833.01
2018-05-31T00:14:52.273Z,100823.61
2018-05-31T00:17:20.629Z,100822.80
2018-05-31T00:19:48.966Z,100821.30
2018-05-31T00:22:17.317Z,100826.73
2018-05-31T00:24:45.653Z,100827.13
2018-05-31T00:27:14.008Z,100821.23
2018-05-31T00:29:42.349Z,100828.39
2018-05-31T00:32:10.696Z,100829.53
2018-05-31T00:34:39.036Z,100825.51
2018-05-31T00:37:07.385Z,100827.52
2018-05-31T00:39:35.720Z,100830.92
2018-05-31T00:42:04.078Z,100826.92
2018-05-31T00:44:32.439Z,100828.34
2018-05-31T00:47:00.784Z,100827.31
2018-05-31T00:49:29.112Z,100827.59
2018-05-31T00:51:57.469Z,100828.90
2018-05-31T00:54:25.805Z,100823.63
2018-05-31T00:56:54.161Z,100818.33
2018-05-31T00:59:22.494Z,100817.73
2018-05-31T01:01:50.849Z,100814.94
2018-05-31T01:04:19.185Z,100824.28
2018-05-31T01:06:47.540Z,100826.94
2018-05-31T01:09:15.902Z,100827.53
2018-05-31T01:11:44.262Z,100830.68
2018-05-31T01:14:12.589Z,100832.54
2018-05-31T01:16:40.950Z,100836.38
2018-05-31T01:19:09.285Z,100843.31
2018-05-31T01:21:37.639Z,100839.80
2018-05-31T01:24:05.968Z,100835.20
2018-05-31T01:26:34.320Z,100834.95
2018-05-31T01:29:02.660Z,100829.14
2018-05-31T01:31:30.999Z,100827.96
2018-05-31T01:33:59.345Z,100827.41
2018-05-31T01:36:27.681Z,100826.20
2018-05-31T01:38:56.032Z,100827.50
2018-05-31T01:41:24.371Z,100831.48
2018-05-31T01:43:52.721Z,100836.81
2018-05-31T01:46:21.065Z,100832.91
2018-05-31T01:48:49.412Z,100843.72
2018-05-31T01:51:17.744Z,100827.78
2018-05-31T01:53:46.098Z,100835.70
2018-05-31T01:56:14.433Z,100831.23
2018-05-31T01:58:42.784Z,100831.25
2018-05-31T02:01:11.120Z,100834.37
2018-05-31T02:03:39.477Z,100835.99
2018-05-31T02:06:07.813Z,100833.73
2018-05-31T02:08:36.164Z,100836.02
2018-05-31T02:11:04.511Z,100836.28
2018-05-31T02:13:32.871Z,100835.00
2018-05-31T02:16:01.205Z,100831.11
2018-05-31T02:18:29.556Z,100834.73
2018-05-31T02:20:57.888Z,100830.43
2018-05-31T02:23:26.249Z,100831.30
2018-05-31T02:25:54.588Z,100827.97
2018-05-31T02:28:22.945Z,100823.95
2018-05-31T02:30:51.399Z,100822.20
2018-05-31T02:33:19.757Z,100820.56
2018-05-31T02:35:48.092Z,100826.20
2018-05-31T02:38:16.449Z,100825.77
2018-05-31T02:40:44.789Z,100828.62
2018-05-31T02:43:13.141Z,100823.00
2018-05-31T02:45:41.477Z,100828.54
2018-05-31T02:48:09.824Z,100832.86
2018-05-31T02:50:38.157Z,100830.42
2018-05-31T02:53:06.517Z,100827.00
2018-05-31T02:55:34.853Z,100827.77
2018-05-31T02:58:03.215Z,100831.81
2018-05-31T03:00:31.548Z,100835.52
2018-05-31T03:02:59.904Z,100827.77
2018-05-31T03:05:28.236Z,100830.41
2018-05-31T03:07:56.588Z,100833.89
2018-05-31T03:10:24.924Z,100832.33
2018-05-31T03:12:53.281Z,100840.18
2018-05-31T03:15:21.608Z,100832.44
2018-05-31T03:17:49.960Z,100842.33
2018-05-31T03:20:18.295Z,100842.24
2018-05-31T03:22:46.657Z,100843.13
2018-05-31T03:25:14.984Z,100846.15
2018-05-31T03:27:43.337Z,100845.72
2018-05-31T03:30:11.672Z,100836.98
2018-05-31T03:32:40.001Z,100832.23
2018-05-31T03:35:08.360Z,100829.75
2018-05-31T03:37:36.697Z,100839.82
2018-05-31T03:40:05.053Z,100837.66
2018-05-31T03:42:33.383Z,100835.97
2018-05-31T03:45:01.741Z,100838.99
2018-05-31T03:47:30.146Z,100830.52
2018-05-31T03:49:58.436Z,100832.68
2018-05-31T03:52:26.773Z,100840.78
2018-05-31T03:54:55.133Z,100844.92
2018-05-31T03:57:23.464Z,100840.91
2018-05-31T03:59:51.829Z,100833.64
2018-05-31T04:02:20.157Z,100834.58
2018-05-31T04:04:48.513Z,100836.20
2018-05-31T04:07:16.849Z,100830.18
2018-05-31T04:09:46.045Z,100822.05
2018-05-31T04:12:14.381Z,100821.55
2018-05-31T04:14:42.745Z,100822.06
2018-05-31T04:17:11.085Z,100816.03
2018-05-31T04:19:39.441Z,100809.20
2018-05-31T04:22:07.772Z,100814.80
2018-05-31T04:24:36.130Z,100819.83
2018-05-31T04:27:04.465Z,100826.73
2018-05-31T04:29:32.820Z,100831.45
2018-05-31T04:32:01.157Z,100827.93
2018-05-31T04:34:29.505Z,100828.98
2018-05-31T04:36:57.841Z,100832.34
2018-05-31T04:39:26.192Z,100831.23
2018-05-31T04:41:54.534Z,100837.80
2018-05-31T04:44:22.889Z,100833.18
2018-05-31T04:46:51.229Z,100835.53
2018-05-31T04:49:19.624Z,100836.64
2018-05-31T04:51:47.965Z,100840.33
2018-05-31T04:54:16.325Z,100840.43
2018-05-31T04:56:44.684Z,100830.17
2018-05-31T04:59:13.043Z,100837.06
2018-05-31T05:01:41.385Z,100838.17
2018-05-31T05:04:09.748Z,100841.42
2018-05-31T05:06:38.096Z,100842.98
2018-05-31T05:09:06.456Z,100838.92
2018-05-31T05:11:34.796Z,100840.81
2018-05-31T05:14:03.161Z,100839.65
2018-05-31T05:16:31.505Z,100843.11
2018-05-31T05:18:59.864Z,100840.92
2018-05-31T05:21:28.200Z,100838.48
2018-05-31T05:23:56.593Z,100844.03
2018-05-31T05:26:25.393Z,100840.29
2018-05-31T05:28:53.740Z,100842.40
2018-05-31T05:31:22.085Z,100842.66
2018-05-31T05:33:50.424Z,100847.03
2018-05-31T05:36:18.809Z,100842.32
2018-05-31T05:38:47.140Z,100840.99
2018-05-31T05:41:15.788Z,100842.38
2018-05-31T05:43:44.140Z,100841.23
2018-05-31T05:46:13.042Z,100837.03
2018-05-31T05:48:41.373Z,100841.06
2018-05-31T05:51:09.732Z,100840.80
2018-05-31T05:53:38.082Z,100841.54
2018-05-31T05:56:06.429Z,100840.09
2018-05-31T05:58:34.768Z,100839.89
2018-05-31T06:01:03.137Z,100834.88
2018-05-31T06:03:31.468Z,100837.26
2018-05-31T06:06:00.691Z,100842.54
2018-05-31T06:08:29.045Z,100850.41
2018-05-31T06:12:43.266Z,100855.98
2018-05-31T06:15:11.616Z,100863.97
2018-05-31T06:17:40.249Z,100861.58
2018-05-31T06:20:08.600Z,100856.14
2018-05-31T06:22:36.941Z,100867.00
2018-05-31T06:25:05.301Z,100853.19
2018-05-31T06:27:33.645Z,100862.05
2018-05-31T06:30:02.001Z,100863.27
2018-05-31T06:32:30.331Z,100866.80
2018-05-31T06:34:58.689Z,100865.67
2018-05-31T06:37:27.903Z,100869.14
2018-05-31T06:39:56.365Z,100870.63
2018-05-31T06:42:24.709Z,100874.33
2018-05-31T06:44:53.073Z,100871.84
2018-05-31T06:47:21.672Z,100872.65
2018-05-31T06:49:50.215Z,100879.73
2018-05-31T06:52:18.553Z,100871.19
2018-05-31T06:54:46.903Z,100867.52
2018-05-31T06:57:15.244Z,100871.73
2018-05-31T06:59:43.614Z,100872.70
2018-05-31T07:02:12.003Z,100870.39
2018-05-31T07:04:40.325Z,100870.39
2018-05-31T07:07:08.679Z,100867.33
2018-05-31T07:09:37.016Z,100867.31
2018-05-31T07:12:05.380Z,100861.16
2018-05-31T07:14:33.712Z,100868.88
2018-05-31T07:17:02.245Z,100869.62
2018-05-31T07:19:30.584Z,100866.52
2018-05-31T07:21:58.937Z,100875.56
2018-05-31T07:24:27.273Z,100877.81
2018-05-31T07:26:55.636Z,100877.87
2018-05-31T07:29:23.968Z,100887.60
2018-05-31T07:31:52.328Z,100887.08
2018-05-31T07:34:20.668Z,100892.61
2018-05-31T07:36:49.056Z,100894.94
2018-05-31T07:39:17.389Z,100889.85
2018-05-31T07:41:45.744Z,100889.58
2018-05-31T07:44:14.140Z,100886.54
2018-05-31T07:46:42.453Z,100880.42
2018-05-31T07:49:10.788Z,100880.61
2018-05-31T07:51:39.148Z,100882.20
2018-05-31T07:54:07.484Z,100879.41
2018-05-31T07:56:36.593Z,100879.66
2018-05-31T07:59:04.927Z,100878.19
2018-05-31T08:01:33.284Z,100878.45
2018-05-31T08:04:01.629Z,100886.45
2018-05-31T08:06:29.988Z,100886.82
2018-05-31T08:08:58.324Z,100880.20
2018-05-31T08:11:26.680Z,100880.69
2018-05-31T08:13:55.162Z,100884.24
2018-05-31T08:16:23.608Z,100883.90
2018-05-31T08:18:51.995Z,100883.88
2018-05-31T08:21:20.365Z,100877.64
2018-05-31T08:23:48.705Z,100880.05
2018-05-31T08:26:17.268Z,100879.69
2018-05-31T08:28:45.616Z,100876.49
2018-05-31T08:31:13.973Z,100878.63
2018-05-31T08:33:42.313Z,100882.19
2018-05-31T08:36:11.024Z,100884.70
2018-05-31T08:38:39.356Z,100878.91
2018-05-31T08:41:07.717Z,100885.34
2018-05-31T08:43:36.052Z,100879.06
2018-05-31T08:46:07.153Z,100884.09
2018-05-31T08:48:36.176Z,100882.27
2018-05-31T08:51:04.638Z,100886.02
2018-05-31T08:53:33.086Z,100878.95
2018-05-31T08:56:02.672Z,100882.73
2018-05-31T08:58:31.105Z,100882.64
2018-05-31T09:00:59.497Z,100886.59
2018-05-31T09:03:27.828Z,100876.37
2018-05-31T09:05:56.200Z,100880.87
2018-05-31T09:08:24.729Z,100877.67
2018-05-31T09:10:53.056Z,100878.63
2018-05-31T09:13:21.415Z,100878.92
2018-05-31T09:15:49.747Z,100879.59
2018-05-31T09:18:18.504Z,100872.99
2018-05-31T09:20:46.832Z,100876.92
2018-05-31T09:23:16.170Z,100870.07
2018-05-31T09:25:44.512Z,100872.07
2018-05-31T09:28:12.903Z,100873.77
2018-05-31T09:30:41.399Z,100866.81
2018-05-31T09:33:09.829Z,100864.91
2018-05-31T09:35:38.220Z,100863.23
2018-05-31T09:38:06.568Z,100862.03
2018-05-31T09:40:34.909Z,100860.47
2018-05-31T09:43:03.272Z,100863.70
2018-05-31T09:45:31.604Z,100862.73
2018-05-31T09:47:59.961Z,100868.23
2018-05-31T09:50:28.308Z,100861.81
2018-05-31T09:52:56.664Z,100861.21
2018-05-31T09:55:25.012Z,100862.92
2018-05-31T09:57:53.412Z,100857.98
2018-05-31T10:00:21.754Z,100863.40
2018-05-31T10:02:50.117Z,100860.56
2018-05-31T10:05:18.502Z,100865.61
2018-05-31T10:07:46.816Z,100859.55
2018-05-31T10:10:15.155Z,100862.33
2018-05-31T10:12:43.530Z,100865.70
2018-05-31T10:15:11.865Z,100862.98
2018-05-31T10:17:40.205Z,100867.03
2018-05-31T10:20:08.569Z,100865.60
2018-05-31T10:22:36.901Z,100860.25
2018-05-31T10:25:05.265Z,100861.27
2018-05-31T10:27:33.611Z,100858.94
2018-05-31T10:30:01.969Z,100851.44
2018-05-31T10:32:30.312Z,100851.68
2018-05-31T10:34:58.665Z,100851.01
2018-05-31T10:37:27.072Z,100848.97
2018-05-31T10:39:55.432Z,100849.72
2018-05-31T10:42:23.768Z,100843.97
2018-05-31T10:44:52.124Z,100842.14
2018-05-31T10:47:20.469Z,100843.77
2018-05-31T10:49:48.828Z,100838.52
2018-05-31T10:52:17.473Z,100843.86
2018-05-31T10:54:46.825Z,100844.53
2018-05-31T10:57:15.189Z,100842.56
2018-05-31T10:59:43.544Z,100838.64
2018-05-31T11:02:11.880Z,100834.53
2018-05-31T11:04:40.236Z,100837.63
2018-05-31T11:07:08.588Z,100843.28
2018-05-31T11:09:36.957Z,100839.53
2018-05-31T11:12:05.292Z,100838.02
2018-05-31T11:14:33.633Z,100838.38
2018-05-31T11:17:02.099Z,100830.13
2018-05-31T11:19:30.464Z,100829.03
2018-05-31T11:21:58.801Z,100826.94
2018-05-31T11:24:27.120Z,100822.77
2018-05-31T11:26:55.585Z,100818.20
2018-05-31T11:29:23.905Z,100812.33
2018-05-31T11:31:52.265Z,100812.44
2018-05-31T11:34:20.583Z,100811.59
2018-05-31T11:36:48.937Z,100807.10
2018-05-31T11:39:17.269Z,100807.59
2018-05-31T11:41:45.626Z,100811.20
2018-05-31T11:44:13.956Z,100806.37
2018-05-31T11:46:42.300Z,100800.76
2018-05-31T11:49:10.628Z,100806.02
2018-05-31T11:51:38.972Z,100800.41
2018-05-31T11:54:08.279Z,100794.69
2018-05-31T11:56:36.760Z,100798.55
2018-05-31T11:59:05.084Z,100794.06
2018-05-31T12:01:33.448Z,100796.70
2018-05-31T12:04:01.845Z,100802.45
2018-05-31T12:06:30.200Z,100791.80
2018-05-31T12:08:58.570Z,100786.66
2018-05-31T12:11:26.946Z,100787.46
2018-05-31T12:13:55.809Z,100787.33
2018-05-31T12:16:24.144Z,100784.00
2018-05-31T12:18:52.506Z,100784.07
2018-05-31T12:21:21.788Z,100783.81
2018-05-31T12:23:50.153Z,100783.30
2018-05-31T12:26:18.625Z,100791.38
2018-05-31T12:28:46.997Z,100785.52
2018-05-31T12:31:15.324Z,100791.43
2018-05-31T12:33:43.676Z,100791.69
2018-05-31T12:36:12.009Z,100784.23
2018-05-31T12:38:40.353Z,100786.20
2018-05-31T12:41:08.685Z,100784.36
2018-05-31T12:43:37.036Z,100790.61
2018-05-31T12:46:05.356Z,100784.20
2018-05-31T12:48:33.700Z,100780.73
2018-05-31T12:51:02.050Z,100782.41
2018-05-31T12:53:30.416Z,100784.28
2018-05-31T12:55:58.777Z,100782.61
2018-05-31T12:58:27.129Z,100790.94
2018-05-31T13:00:55.456Z,100787.66
2018-05-31T13:03:23.804Z,100786.80
2018-05-31T13:05:52.169Z,100778.01
2018-05-31T13:08:20.484Z,100779.80
2018-05-31T13:10:48.812Z,100781.92
2018-05-31T13:13:17.853Z,100776.91
2018-05-31T13:15:46.172Z,100777.20
2018-05-31T13:18:14.517Z,100778.63
2018-05-31T13:20:42.856Z,100770.83
2018-05-31T13:23:11.209Z,100770.14
2018-05-31T13:25:39.539Z,100766.66
2018-05-31T13:28:07.885Z,100763.59
2018-05-31T13:30:36.210Z,100753.22
2018-05-31T13:33:04.673Z,100763.76
2018-05-31T13:35:33.001Z,100756.09
2018-05-31T13:38:01.357Z,100748.73
2018-05-31T13:40:29.684Z,100745.13
2018-05-31T13:42:58.065Z,100749.72
2018-05-31T13:45:26.401Z,100746.27
2018-05-31T13:47:54.955Z,100740.03
2018-05-31T13:50:23.276Z,100734.03
2018-05-31T13:52:51.639Z,100746.12
2018-05-31T13:55:19.973Z,100740.67
2018-05-31T13:57:48.328Z,100729.00
2018-05-31T14:00:16.701Z,100731.08
2018-05-31T14:02:45.116Z,100722.80
2018-05-31T14:05:13.448Z,100731.27
2018-05-31T14:07:41.773Z,100732.48
2018-05-31T14:10:10.121Z,100733.55
2018-05-31T14:12:38.449Z,100733.40
2018-05-31T14:15:06.792Z,100740.83
2018-05-31T14:17:35.129Z,100741.77
2018-05-31T14:20:03.501Z,100738.34
2018-05-31T14:22:31.812Z,100741.36
2018-05-31T14:25:00.160Z,100736.31
2018-05-31T14:27:28.488Z,100736.28
2018-05-31T14:29:56.832Z,100727.78
2018-05-31T14:32:25.161Z,100727.42
2018-05-31T14:34:53.504Z,100731.47
2018-05-31T14:37:21.841Z,100726.78
2018-05-31T14:39:50.197Z,100721.48
2018-05-31T14:42:18.544Z,100722.80
2018-05-31T14:44:46.897Z,100716.09
2018-05-31T14:47:15.227Z,100709.54
2018-05-31T14:49:44.356Z,100714.53
2018-05-31T14:52:12.684Z,100705.60
2018-05-31T14:54:41.041Z,100709.06
2018-05-31T14:57:09.376Z,100708.72
2018-05-31T14:59:37.732Z,100713.86
2018-05-31T15:02:06.054Z,100719.86
2018-05-31T15:04:34.409Z,100724.48
2018-05-31T15:07:02.745Z,100721.98
2018-05-31T15:09:31.090Z,100726.83
2018-05-31T15:11:59.420Z,100736.06
2018-05-31T15:14:27.764Z,100739.38
2018-05-31T15:16:56.089Z,100740.48
2018-05-31T15:19:24.444Z,100734.36
2018-05-31T15:21:52.773Z,100737.98
2018-05-31T15:24:21.125Z,100739.44
2018-05-31T15:26:49.456Z,100738.42
2018-05-31T15:29:17.804Z,100738.87
2018-05-31T15:31:46.129Z,100739.25
2018-05-31T15:34:14.485Z,100745.22
2018-05-31T15:36:42.812Z,100742.72
2018-05-31T15:39:11.152Z,100739.23
2018-05-31T15:41:39.482Z,100735.75
2018-05-31T15:44:07.824Z,100736.77
2018-05-31T15:46:36.408Z,100735.15
2018-05-31T15:49:04.753Z,100727.72
2018-05-31T15:51:33.076Z,100721.25
2018-05-31T15:54:01.424Z,100715.17
2018-05-31T15:56:29.752Z,100709.81
2018-05-31T15:58:58.100Z,100713.30
2018-05-31T16:01:26.425Z,100705.18
2018-05-31T16:03:54.841Z,100709.02
2018-05-31T16:06:23.157Z,100714.37
2018-05-31T16:08:51.484Z,100708.03
2018-05-31T16:11:19.855Z,100707.14
2018-05-31T16:13:48.181Z,100709.77
2018-05-31T16:16:16.534Z,100700.94
2018-05-31T16:18:44.865Z,100703.34
2018-05-31T16:21:13.221Z,100698.15
2018-05-31T16:23:41.844Z,100696.23
2018-05-31T16:26:10.655Z,100688.41
2018-05-31T16:28:38.981Z,100688.17
2018-05-31T16:31:07.317Z,100686.69
2018-05-31T16:33:35.655Z,100687.81
2018-05-31T16:36:04.006Z,100682.62
2018-05-31T16:38:32.333Z,100678.01
2018-05-31T16:41:00.687Z,100679.70
2018-05-31T16:43:29.013Z,100678.13
2018-05-31T16:45:57.377Z,100678.44
2018-05-31T16:48:25.713Z,100687.48
2018-05-31T16:50:54.060Z,100689.69
2018-05-31T16:53:22.791Z,100690.55
2018-05-31T16:55:51.141Z,100691.72
2018-05-31T16:58:19.477Z,100695.58
2018-05-31T17:00:47.836Z,100701.98
2018-05-31T17:03:16.173Z,100707.69
2018-05-31T17:05:44.524Z,100708.36
2018-05-31T17:08:12.860Z,100720.23
2018-05-31T17:10:41.232Z,100714.20
2018-05-31T17:13:09.569Z,100721.10
2018-05-31T17:15:37.925Z,100726.97
2018-05-31T17:18:06.272Z,100726.13
2018-05-31T17:20:34.620Z,100726.44
2018-05-31T17:23:02.960Z,100724.90
2018-05-31T17:25:31.316Z,100724.00
2018-05-31T17:27:59.657Z,100726.11
2018-05-31T17:30:28.016Z,100727.66
2018-05-31T17:32:56.366Z,100734.81
2018-05-31T17:35:24.721Z,100738.17
2018-05-31T17:37:53.055Z,100739.41
2018-05-31T17:40:21.421Z,100739.72
2018-05-31T17:42:49.773Z,100744.02
2018-05-31T17:45:18.115Z,100741.69
2018-05-31T17:47:46.456Z,100751.55
2018-05-31T17:50:14.816Z,100749.61
2018-05-31T17:52:43.165Z,100751.04
2018-05-31T17:55:11.525Z,100752.88
2018-05-31T17:57:39.865Z,100748.09
2018-05-31T18:00:08.223Z,100755.27
2018-05-31T18:02:36.560Z,100752.17
2018-05-31T18:05:04.932Z,100750.77
2018-05-31T18:07:33.264Z,100743.16
2018-05-31T18:10:02.012Z,100754.39
2018-05-31T18:12:30.463Z,100770.28
2018-05-31T18:14:59.353Z,100780.11
2018-05-31T18:17:29.020Z,100779.53
2018-05-31T18:19:59.286Z,100798.31
2018-05-31T18:22:29.245Z,100796.94
2018-05-31T18:24:57.645Z,100798.84
2018-05-31T18:27:26.054Z,100805.30
2018-05-31T18:29:54.334Z,100803.60
2018-05-31T18:32:22.693Z,100805.20
2018-05-31T18:34:51.029Z,100807.19
2018-05-31T18:37:19.384Z,100802.16
2018-05-31T18:39:47.733Z,100811.38
2018-05-31T18:42:16.089Z,100806.42
2018-05-31T18:44:44.432Z,100815.66
2018-05-31T18:47:12.789Z,100803.50
2018-05-31T18:49:41.126Z,100805.94
2018-05-31T18:52:09.480Z,100807.72
2018-05-31T18:54:37.811Z,100808.97
2018-05-31T18:57:06.177Z,100819.45
2018-05-31T18:59:34.509Z,100817.64
2018-05-31T19:02:02.865Z,100817.98
2018-05-31T19:04:31.260Z,100821.61
2018-05-31T19:06:59.603Z,100814.67
2018-05-31T19:09:33.454Z,100815.77
2018-05-31T19:12:01.804Z,100808.75
2018-05-31T19:14:30.148Z,100813.05
2018-05-31T19:16:58.505Z,100825.59
2018-05-31T19:19:32.410Z,100829.20
2018-05-31T19:22:00.777Z,100824.91
2018-05-31T19:24:34.778Z,100828.02
2018-05-31T19:27:03.144Z,100824.63
2018-05-31T19:29:31.470Z,100825.41
2018-05-31T19:31:59.830Z,100835.34
2018-05-31T19:34:28.842Z,100844.70
2018-05-31T19:37:02.742Z,100848.05
2018-05-31T19:39:31.082Z,100846.03
2018-05-31T19:41:59.441Z,100847.55
2018-05-31T19:44:33.399Z,100847.81
2018-05-31T19:47:01.751Z,100849.95
2018-05-31T19:49:30.119Z,100841.28
2018-05-31T19:52:04.076Z,100843.28
2018-05-31T19:54:32.421Z,100838.19
2018-05-31T19:57:00.787Z,100839.42
2018-05-31T19:59:34.700Z,100834.20
2018-05-31T20:02:08.658Z,100838.83
2018-05-31T20:04:37.004Z,100838.45
2018-05-31T20:07:05.356Z,100833.47
2018-05-31T20:09:33.700Z,100834.11
2018-05-31T20:12:02.057Z,100827.48
2018-05-31T20:14:30.432Z,100829.43
2018-05-31T20:16:58.828Z,100827.02
2018-05-31T20:19:27.172Z,100828.31
2018-05-31T20:21:55.592Z,100836.02
2018-05-31T20:24:24.001Z,100834.55
2018-05-31T20:26:52.373Z,100844.72
2018-05-31T20:29:20.768Z,100840.44
2018-05-31T20:31:49.127Z,100840.29
2018-05-31T20:34:17.559Z,100843.87
2018-05-31T20:36:45.921Z,100854.24
2018-05-31T20:39:14.256Z,100851.72
2018-05-31T20:41:42.613Z,100868.84
2018-05-31T20:44:11.096Z,100864.45
2018-05-31T20:46:39.460Z,100854.28
2018-05-31T20:49:07.841Z,100849.70
2018-05-31T20:51:36.233Z,100842.01
2018-05-31T20:54:04.608Z,100844.19
2018-05-31T20:56:33.019Z,100850.63
2018-05-31T20:59:01.385Z,100850.21
2018-05-31T21:01:29.732Z,100845.55
2018-05-31T21:03:58.149Z,100843.52
2018-05-31T21:06:26.564Z,100844.17
2018-05-31T21:08:54.912Z,100845.23
2018-05-31T21:11:23.307Z,100842.22
2018-05-31T21:13:51.725Z,100835.14
2018-05-31T21:16:20.068Z,100826.95
2018-05-31T21:18:48.543Z,100833.68
2018-05-31T21:21:16.869Z,100826.90
2018-05-31T21:23:45.223Z,100831.20
2018-05-31T21:26:13.561Z,100831.32
2018-05-31T21:28:41.923Z,100833.63
2018-05-31T21:31:10.252Z,100848.57
2018-05-31T21:33:38.612Z,100843.63
2018-05-31T21:36:06.953Z,100838.48
2018-05-31T21:38:35.308Z,100834.31
2018-05-31T21:41:03.641Z,100832.48
2018-05-31T21:43:32.016Z,100834.35
2018-05-31T21:46:00.345Z,100833.33
2018-05-31T21:48:28.696Z,100825.97
2018-05-31T21:50:57.024Z,100829.67
2018-05-31T21:53:25.377Z,100828.27
2018-05-31T21:55:53.713Z,100824.86
2018-05-31T21:58:22.065Z,100818.91
2018-05-31T22:00:56.201Z,100827.00
2018-05-31T22:03:24.560Z,100822.92
2018-05-31T22:05:52.889Z,100824.55
2018-05-31T22:08:21.236Z,100826.56
2018-05-31T22:10:49.563Z,100825.94
2018-05-31T22:13:17.924Z,100824.42
2018-05-31T22:15:46.253Z,100828.33
2018-05-31T22:18:14.605Z,100825.35
2018-05-31T22:20:42.940Z,100833.57
2018-05-31T22:23:11.288Z,100835.33
2018-05-31T22:25:39.616Z,100840.78
2018-05-31T22:28:07.972Z,100833.37
2018-05-31T22:30:36.305Z,100835.80
2018-05-31T22:33:04.651Z,100847.55
2018-05-31T22:35:32.984Z,100847.88
2018-05-31T22:38:01.334Z,100848.42
2018-05-31T22:40:29.663Z,100851.10
2018-05-31T22:42:58.013Z,100848.28
2018-05-31T22:45:26.351Z,100841.59
2018-05-31T22:47:54.708Z,100849.50
2018-05-31T22:50:23.032Z,100846.87
2018-05-31T22:52:51.384Z,100846.94
2018-05-31T22:55:19.725Z,100841.43
2018-05-31T22:57:48.054Z,100836.84
2018-05-31T23:00:17.131Z,100841.98
2018-05-31T23:02:45.187Z,100833.56
2018-05-31T23:05:13.524Z,100832.95
2018-05-31T23:07:41.856Z,100833.30
2018-05-31T23:10:10.216Z,100830.77
2018-05-31T23:12:38.549Z,100827.00
2018-05-31T23:15:06.905Z,100824.68
2018-05-31T23:17:35.235Z,100821.56
2018-05-31T23:20:03.584Z,100819.04
2018-05-31T23:22:31.912Z,100812.19
2018-05-31T23:25:00.273Z,100808.27
2018-05-31T23:27:28.604Z,100816.48
2018-05-31T23:29:56.952Z,100833.30
2018-05-31T23:32:25.280Z,100812.48
2018-05-31T23:34:53.636Z,100830.28
2018-05-31T23:37:21.960Z,100826.65
2018-05-31T23:39:50.308Z,100811.41
2018-05-31T23:42:18.640Z,100805.91
2018-05-31T23:44:46.997Z,100806.74
2018-05-31T23:47:15.324Z,100795.61
2018-05-31T23:49:43.685Z,100787.62
2018-05-31T23:52:12.021Z,100790.05
2018-05-31T23:54:40.373Z,100790.23
2018-05-31T23:57:08.709Z,100790.20
2018-05-31T23:59:37.099Z,100791.56
